Time;durP1;ratioP1;P1;durP2;ratioP2;P2;SDS_P1;SDS_P2;PMS_P1;PMS_P2;Temp;Humidity;BMP_temperature;BMP_pressure;BME280_temperature;BME280_humidity;BME280_pressure;Samples;Min_cycle;Max_cycle;Signal;HPM_P1;HPM_P2
2023/06/23 00:03:19;;;;;;;;;;;24.60;57.90;;;;;;10291228;28;92666;-67
2023/06/23 00:08:21;;;;;;;;;;;24.60;57.90;;;;;;10289781;28;94596;-67
2023/06/23 00:13:22;;;;;;;;;;;24.50;57.80;;;;;;10290334;28;93628;-67
2023/06/23 00:18:24;;;;;;;;;;;24.50;57.80;;;;;;10286356;28;95559;-65
2023/06/23 00:23:26;;;;;;;;;;;24.50;57.70;;;;;;10289071;28;93603;-66
2023/06/23 00:28:28;;;;;;;;;;;24.50;57.80;;;;;;10290086;28;94587;-67
2023/06/23 00:33:30;;;;;;;;;;;24.50;57.80;;;;;;10272088;28;92593;-66
2023/06/23 00:38:33;;;;;;;;;;;24.50;57.70;;;;;;10289088;28;94589;-61
2023/06/23 00:43:35;;;;;;;;;;;24.50;57.80;;;;;;10288404;28;93466;-66
2023/06/23 00:48:37;;;;;;;;;;;24.40;57.70;;;;;;10269064;28;93625;-66
2023/06/23 00:53:39;;;;;;;;;;;24.40;57.70;;;;;;10287623;28;92950;-67
2023/06/23 00:58:41;;;;;;;;;;;24.40;57.70;;;;;;10286767;28;93612;-67
2023/06/23 01:03:43;;;;;;;;;;;24.40;57.70;;;;;;10271205;28;93721;-66
2023/06/23 01:08:54;;;;;;;;;;;24.40;57.60;;;;;;10267487;28;95783;-66
2023/06/23 01:14:10;;;;;;;;;;;24.40;57.70;;;;;;10286309;28;93555;-67
2023/06/23 01:19:21;;;;;;;;;;;24.40;57.70;;;;;;10285838;28;95188;-66
2023/06/23 01:24:32;;;;;;;;;;;24.40;57.60;;;;;;10288530;28;94575;-67
2023/06/23 01:29:34;;;;;;;;;;;24.40;58.20;;;;;;10286153;28;94587;-66
2023/06/23 01:34:42;;;;;;;;;;;24.40;57.60;;;;;;10287464;28;94542;-66
2023/06/23 01:39:46;;;;;;;;;;;24.40;57.60;;;;;;10286408;28;92548;-66
2023/06/23 01:44:51;;;;;;;;;;;24.40;57.50;;;;;;10288013;28;92869;-65
2023/06/23 01:49:54;;;;;;;;;;;24.40;57.50;;;;;;10285764;28;94805;-68
2023/06/23 01:54:57;;;;;;;;;;;24.40;57.50;;;;;;10286619;28;93720;-67
2023/06/23 02:00:00;;;;;;;;;;;24.40;57.50;;;;;;10266267;28;98149;-67
2023/06/23 02:05:03;;;;;;;;;;;24.40;57.50;;;;;;10285267;28;93604;-66
2023/06/23 02:10:06;;;;;;;;;;;24.40;57.50;;;;;;10286379;28;94551;-66
2023/06/23 02:15:08;;;;;;;;;;;24.40;57.50;;;;;;10274785;28;94636;-61
2023/06/23 02:20:14;;;;;;;;;;;24.40;58.50;;;;;;10293035;28;94565;-60
2023/06/23 02:25:16;;;;;;;;;;;24.40;57.60;;;;;;10292648;28;94116;-61
2023/06/23 02:30:18;;;;;;;;;;;24.40;57.60;;;;;;10293020;28;93441;-67
2023/06/23 02:35:20;;;;;;;;;;;24.40;57.60;;;;;;10293669;28;93838;-66
2023/06/23 02:40:25;;;;;;;;;;;24.40;57.60;;;;;;10274374;28;92481;-66
2023/06/23 02:45:28;;;;;;;;;;;24.40;57.50;;;;;;10292522;28;93711;-66
2023/06/23 02:50:32;;;;;;;;;;;24.40;57.50;;;;;;10264516;28;95943;-66
2023/06/23 02:55:37;;;;;;;;;;;24.30;57.50;;;;;;10251769;28;92969;-66
2023/06/23 03:00:39;;;;;;;;;;;24.30;57.40;;;;;;10252190;28;93870;-66
2023/06/23 03:05:41;;;;;;;;;;;24.30;57.40;;;;;;10251643;28;92942;-67
2023/06/23 03:10:43;;;;;;;;;;;24.30;57.30;;;;;;10252474;28;94884;-68
2023/06/23 03:15:47;;;;;;;;;;;24.20;57.40;;;;;;10252230;28;94641;-67
2023/06/23 03:20:50;;;;;;;;;;;24.30;57.30;;;;;;10265313;28;94497;-66
2023/06/23 03:25:52;;;;;;;;;;;24.20;57.30;;;;;;10250160;28;93994;-66
2023/06/23 03:31:00;;;;;;;;;;;24.20;57.30;;;;;;10250006;28;94641;-68
2023/06/23 03:36:05;;;;;;;;;;;24.20;57.30;;;;;;10250405;28;93525;-67
2023/06/23 03:41:09;;;;;;;;;;;24.20;57.20;;;;;;10247009;28;95919;-67
2023/06/23 04:18:33;;;;;;;;;;;24.20;57.10;;;;;;10242446;28;93762;-66
2023/06/23 04:23:36;;;;;;;;;;;24.20;57.10;;;;;;10290272;28;92973;-66
2023/06/23 04:28:39;;;;;;;;;;;24.20;57.10;;;;;;10270690;28;93898;-66
2023/06/23 04:33:41;;;;;;;;;;;24.20;57.00;;;;;;10288012;28;94419;-66
2023/06/23 04:38:45;;;;;;;;;;;24.20;57.10;;;;;;10286735;28;97280;-66
2023/06/23 04:43:51;;;;;;;;;;;24.20;57.10;;;;;;10287116;28;93776;-65
2023/06/23 04:48:55;;;;;;;;;;;24.20;57.30;;;;;;10746999;22;94240;-60
2023/06/23 04:54:00;;;;;;;;;;;24.20;57.60;;;;;;10282663;28;93656;-60
2023/06/23 04:59:03;;;;;;;;;;;24.20;57.40;;;;;;10288320;28;93632;-59
2023/06/23 05:04:07;;;;;;;;;;;24.20;57.50;;;;;;10270965;28;93280;-61
2023/06/23 05:09:10;;;;;;;;;;;24.20;57.50;;;;;;10253867;28;94454;-61
2023/06/23 05:14:13;;;;;;;;;;;24.20;57.60;;;;;;10326373;28;92903;-61
2023/06/23 05:19:15;;;;;;;;;;;24.20;57.60;;;;;;10282392;28;94593;-61
2023/06/23 05:24:18;;;;;;;;;;;24.20;57.60;;;;;;10286645;28;94531;-61
2023/06/23 05:29:20;;;;;;;;;;;24.20;57.70;;;;;;10284300;28;96103;-61
2023/06/23 05:34:23;;;;;;;;;;;24.20;57.80;;;;;;10269589;28;93697;-62
2023/06/23 05:39:27;;;;;;;;;;;24.20;59.30;;;;;;10269763;28;94020;-63
2023/06/23 05:44:28;;;;;;;;;;;24.20;58.40;;;;;;10287057;28;93595;-64
2023/06/23 05:49:34;;;;;;;;;;;24.20;58.00;;;;;;10286034;28;93858;-62
2023/06/23 05:54:38;;;;;;;;;;;24.10;57.90;;;;;;10268930;28;92471;-62
2023/06/23 05:59:43;;;;;;;;;;;24.20;59.00;;;;;;10286893;28;94491;-62
2023/06/23 06:04:47;;;;;;;;;;;24.20;59.40;;;;;;10286961;28;92197;-63
2023/06/23 06:09:51;;;;;;;;;;;24.20;59.40;;;;;;10285976;28;93600;-63
2023/06/23 06:14:53;;;;;;;;;;;24.30;60.40;;;;;;10286487;28;93668;-63
2023/06/23 06:19:57;;;;;;;;;;;24.40;59.90;;;;;;10283158;28;96460;-63
2023/06/23 06:25:02;;;;;;;;;;;24.40;60.00;;;;;;10286338;28;94548;-63
2023/06/23 06:30:04;;;;;;;;;;;24.50;59.60;;;;;;10285813;28;93841;-63
2023/06/23 06:35:08;;;;;;;;;;;24.50;59.50;;;;;;10269525;28;94883;-63
2023/06/23 06:40:11;;;;;;;;;;;24.50;59.30;;;;;;10286365;28;93435;-63
2023/06/23 06:45:13;;;;;;;;;;;24.60;59.10;;;;;;10267934;28;93646;-63
2023/06/23 06:50:15;;;;;;;;;;;24.60;59.00;;;;;;10285157;28;92744;-63
2023/06/23 06:55:18;;;;;;;;;;;24.60;58.80;;;;;;10286096;28;93804;-63
2023/06/23 07:00:21;;;;;;;;;;;24.70;58.80;;;;;;10290320;28;93348;-63
2023/06/23 07:05:23;;;;;;;;;;;24.80;58.70;;;;;;10292657;28;94482;-62
2023/06/23 07:10:24;;;;;;;;;;;24.80;58.60;;;;;;10289450;28;95981;-63
2023/06/23 07:15:26;;;;;;;;;;;24.80;58.40;;;;;;10292092;28;93119;-63
2023/06/23 07:20:28;;;;;;;;;;;24.90;58.40;;;;;;10291262;28;93575;-63
2023/06/23 07:25:30;;;;;;;;;;;24.90;58.40;;;;;;10291847;28;94539;-64
2023/06/23 07:30:32;;;;;;;;;;;24.90;58.30;;;;;;10291515;28;93622;-63
2023/06/23 07:35:35;;;;;;;;;;;24.90;58.30;;;;;;10291652;28;92804;-63
2023/06/23 07:40:36;;;;;;;;;;;24.90;58.40;;;;;;10289609;28;94188;-63
2023/06/23 07:45:38;;;;;;;;;;;24.80;58.40;;;;;;10291316;28;92791;-63
2023/06/23 07:50:40;;;;;;;;;;;24.80;58.60;;;;;;10290337;28;94431;-63
2023/06/23 07:55:42;;;;;;;;;;;24.80;58.80;;;;;;10290137;28;93639;-63
2023/06/23 08:00:43;;;;;;;;;;;24.70;58.70;;;;;;10287650;28;95960;-60
2023/06/23 08:05:45;;;;;;;;;;;24.70;58.80;;;;;;10290408;28;93715;-63
2023/06/23 08:10:47;;;;;;;;;;;24.70;58.80;;;;;;10290920;28;94497;-63
2023/06/23 08:15:49;;;;;;;;;;;24.70;58.90;;;;;;10290434;28;94427;-63
2023/06/23 08:20:51;;;;;;;;;;;24.70;58.90;;;;;;10290594;28;93413;-63
2023/06/23 08:25:53;;;;;;;;;;;24.70;59.00;;;;;;10288744;28;93808;-63
2023/06/23 08:30:55;;;;;;;;;;;24.60;59.10;;;;;;10289595;28;94607;-63
2023/06/23 08:35:56;;;;;;;;;;;24.60;59.10;;;;;;10289777;28;93257;-63
2023/06/23 08:40:59;;;;;;;;;;;24.60;59.20;;;;;;10289023;28;93941;-63
2023/06/23 08:46:02;;;;;;;;;;;24.70;59.20;;;;;;10288981;28;93703;-63
2023/06/23 08:51:04;;;;;;;;;;;24.70;59.20;;;;;;10285285;28;97017;-62
2023/06/23 08:56:06;;;;;;;;;;;24.70;59.20;;;;;;10289437;28;94617;-62
2023/06/23 09:01:08;;;;;;;;;;;24.70;59.20;;;;;;10289514;28;93760;-63
2023/06/23 09:06:10;;;;;;;;;;;24.70;59.10;;;;;;10288521;28;94756;-63
2023/06/23 09:11:12;;;;;;;;;;;24.70;59.20;;;;;;10287940;28;93579;-62
2023/06/23 09:16:15;;;;;;;;;;;24.70;59.20;;;;;;10288500;28;94381;-63
2023/06/23 09:21:17;;;;;;;;;;;24.60;59.20;;;;;;10270188;28;94300;-63
2023/06/23 09:26:20;;;;;;;;;;;24.60;59.20;;;;;;10288298;28;113030;-62
2023/06/23 09:31:22;;;;;;;;;;;24.60;59.20;;;;;;10288416;28;94403;-63
2023/06/23 09:36:32;;;;;;;;;;;24.60;59.30;;;;;;10288673;28;93974;-61
2023/06/23 09:41:34;;;;;;;;;;;24.60;59.40;;;;;;10285354;28;94981;-63
2023/06/23 09:47:02;;;;;;;;;;;24.60;59.40;;;;;;10287080;28;93420;-62
2023/06/23 09:52:04;;;;;;;;;;;24.60;59.40;;;;;;10286895;28;94529;-62
2023/06/23 09:57:07;;;;;;;;;;;24.60;59.40;;;;;;10286868;28;93640;-62
2023/06/23 10:02:18;;;;;;;;;;;24.60;60.20;;;;;;10287593;28;94586;-62
2023/06/23 10:07:23;;;;;;;;;;;24.70;59.10;;;;;;10287100;28;93560;-62
2023/06/23 10:12:26;;;;;;;;;;;24.80;59.00;;;;;;10286943;28;94698;-62
2023/06/23 10:17:28;;;;;;;;;;;24.80;58.80;;;;;;10269853;28;92985;-62
2023/06/23 10:22:30;;;;;;;;;;;24.90;58.70;;;;;;10287239;28;93589;-61
2023/06/23 10:27:32;;;;;;;;;;;24.90;58.60;;;;;;10268003;28;93570;-63
2023/06/23 10:32:34;;;;;;;;;;;24.90;58.50;;;;;;10285062;28;96064;-63
2023/06/23 10:37:36;;;;;;;;;;;25.00;58.50;;;;;;10292730;28;94440;-63
2023/06/23 10:42:47;;;;;;;;;;;25.00;58.50;;;;;;10293066;28;93480;-63
2023/06/23 10:47:49;;;;;;;;;;;25.00;58.40;;;;;;10290483;28;93682;-63
2023/06/23 10:52:51;;;;;;;;;;;25.00;58.30;;;;;;10291537;28;93513;-63
2023/06/23 10:58:11;;;;;;;;;;;25.00;58.30;;;;;;10292784;28;94493;-62
2023/06/23 11:03:33;;;;;;;;;;;25.00;58.40;;;;;;10292411;28;93797;-63
2023/06/23 11:08:39;;;;;;;;;;;25.00;58.30;;;;;;10293429;28;93901;-63
2023/06/23 11:13:41;;;;;;;;;;;25.00;58.30;;;;;;10292931;28;96653;-63
2023/06/23 11:19:02;;;;;;;;;;;25.00;58.30;;;;;;10292618;28;93787;-61
2023/06/23 11:24:07;;;;;;;;;;;24.90;58.30;;;;;;10271882;28;95871;-62
2023/06/23 11:29:15;;;;;;;;;;;24.90;58.40;;;;;;10274032;28;94307;-63
2023/06/23 11:34:18;;;;;;;;;;;24.90;58.20;;;;;;10275014;28;93378;-62
2023/06/23 11:39:20;;;;;;;;;;;24.90;58.30;;;;;;10291307;28;93400;-63
2023/06/23 11:44:22;;;;;;;;;;;24.90;58.30;;;;;;10272485;28;94409;-63
2023/06/23 11:49:24;;;;;;;;;;;24.90;58.40;;;;;;10289579;28;94496;-63
2023/06/23 11:54:30;;;;;;;;;;;24.90;58.40;;;;;;10291114;28;94742;-62
2023/06/23 11:59:33;;;;;;;;;;;24.90;58.20;;;;;;10290728;28;92122;-63
2023/06/23 12:04:39;;;;;;;;;;;24.90;58.00;;;;;;10289535;28;93530;-63
2023/06/23 12:09:41;;;;;;;;;;;24.90;57.90;;;;;;10289717;28;94758;-63
2023/06/23 12:14:43;;;;;;;;;;;24.90;57.80;;;;;;10287869;28;95738;-62
2023/06/23 12:19:46;;;;;;;;;;;24.90;57.80;;;;;;10288994;28;94050;-63
2023/06/23 12:24:48;;;;;;;;;;;24.90;57.60;;;;;;10289594;28;94703;-62
2023/06/23 12:29:50;;;;;;;;;;;24.90;57.60;;;;;;10271949;28;92951;-63
2023/06/23 12:34:54;;;;;;;;;;;24.90;57.50;;;;;;10289087;28;92922;-63
2023/06/23 12:39:56;;;;;;;;;;;24.90;57.20;;;;;;10289160;28;94477;-62
2023/06/23 12:44:58;;;;;;;;;;;24.90;57.30;;;;;;10287835;28;93542;-63
2023/06/23 12:50:06;;;;;;;;;;;24.90;57.40;;;;;;10268890;28;92775;-63
2023/06/23 12:55:08;;;;;;;;;;;24.90;57.70;;;;;;10288711;28;93809;-62
2023/06/23 13:00:11;;;;;;;;;;;25.00;59.60;;;;;;10289387;28;93644;-64
2023/06/23 13:05:13;;;;;;;;;;;25.00;60.50;;;;;;10285512;28;95904;-64
2023/06/23 13:10:15;;;;;;;;;;;25.10;60.60;;;;;;10288151;28;93523;-63
2023/06/23 13:15:16;;;;;;;;;;;25.20;60.70;;;;;;10287353;28;94000;-63
2023/06/23 13:20:18;;;;;;;;;;;25.20;61.00;;;;;;10288594;28;94297;-63
2023/06/23 13:25:20;;;;;;;;;;;25.10;59.00;;;;;;10329010;28;94574;-63
2023/06/23 13:30:22;;;;;;;;;;;25.10;55.30;;;;;;10310709;28;94610;-64
2023/06/23 13:35:26;;;;;;;;;;;25.10;53.10;;;;;;10307486;28;93541;-63
2023/06/23 13:40:28;;;;;;;;;;;25.00;51.80;;;;;;10329156;28;93723;-62
2023/06/23 13:45:31;;;;;;;;;;;25.00;51.40;;;;;;10310786;28;94547;-64
2023/06/23 13:50:34;;;;;;;;;;;25.00;51.00;;;;;;10327386;28;93569;-63
2023/06/23 13:55:36;;;;;;;;;;;25.00;50.90;;;;;;10326156;28;96642;-63
2023/06/23 14:00:38;;;;;;;;;;;25.00;51.30;;;;;;10327909;28;94849;-63
2023/06/23 14:05:40;;;;;;;;;;;24.90;51.40;;;;;;10328774;28;93410;-64
2023/06/23 14:10:54;;;;;;;;;;;24.90;51.20;;;;;;10341355;28;94697;-65
2023/06/23 14:15:56;;;;;;;;;;;24.90;51.10;;;;;;10340396;28;93563;-64
2023/06/23 14:20:58;;;;;;;;;;;24.90;50.90;;;;;;10323505;28;92520;-65
2023/06/23 14:26:00;;;;;;;;;;;24.90;50.90;;;;;;10340955;28;94563;-63
2023/06/23 14:31:02;;;;;;;;;;;24.90;50.80;;;;;;10341426;28;93756;-63
2023/06/23 14:36:04;;;;;;;;;;;24.80;50.70;;;;;;10340821;28;95001;-63
2023/06/23 14:41:06;;;;;;;;;;;24.80;50.80;;;;;;10340175;28;93681;-63
2023/06/23 14:46:08;;;;;;;;;;;24.80;50.90;;;;;;10338098;28;97056;-62
2023/06/23 14:51:13;;;;;;;;;;;24.80;52.10;;;;;;10338745;28;94543;-64
2023/06/23 14:56:14;;;;;;;;;;;24.80;51.60;;;;;;10321862;28;93474;-63
2023/06/23 15:01:16;;;;;;;;;;;24.80;51.70;;;;;;10339906;28;94412;-63
2023/06/23 15:06:19;;;;;;;;;;;24.80;51.80;;;;;;10339599;28;93941;-63
2023/06/23 15:11:22;;;;;;;;;;;24.80;51.80;;;;;;10340362;28;94024;-64
2023/06/23 15:16:24;;;;;;;;;;;24.80;51.80;;;;;;10321127;28;94453;-64
2023/06/23 15:21:26;;;;;;;;;;;24.80;52.00;;;;;;10333231;28;92838;-62
2023/06/23 15:26:27;;;;;;;;;;;24.80;52.10;;;;;;10332931;28;94899;-64
2023/06/23 15:31:29;;;;;;;;;;;24.80;52.30;;;;;;10333258;28;94649;-62
2023/06/23 15:36:32;;;;;;;;;;;24.80;52.40;;;;;;10329888;28;96541;-62
2023/06/23 15:41:34;;;;;;;;;;;24.80;53.70;;;;;;10331274;28;93987;-60
2023/06/23 15:46:37;;;;;;;;;;;24.90;54.60;;;;;;10331272;28;92956;-61
2023/06/23 15:51:39;;;;;;;;;;;24.90;54.80;;;;;;10313521;28;94056;-62
2023/06/23 15:56:41;;;;;;;;;;;24.90;54.60;;;;;;10331392;28;93691;-62
2023/06/23 16:01:43;;;;;;;;;;;24.90;54.60;;;;;;10330809;28;93680;-60
2023/06/23 16:06:45;;;;;;;;;;;25.00;55.80;;;;;;10330824;28;94541;-61
2023/06/23 16:11:47;;;;;;;;;;;25.00;56.10;;;;;;10331522;28;93217;-62
2023/06/23 16:16:49;;;;;;;;;;;25.00;53.80;;;;;;10331089;28;94504;-63
2023/06/23 16:21:51;;;;;;;;;;;25.00;53.30;;;;;;10330543;28;95790;-62
2023/06/23 16:26:53;;;;;;;;;;;25.10;52.90;;;;;;10327201;28;95908;-62
2023/06/23 16:31:54;;;;;;;;;;;25.10;52.40;;;;;;10329819;28;94492;-61
2023/06/23 16:36:56;;;;;;;;;;;25.10;52.40;;;;;;10329505;28;93471;-63
2023/06/23 16:42:00;;;;;;;;;;;25.10;52.50;;;;;;10330037;28;94506;-64
2023/06/23 16:47:03;;;;;;;;;;;25.10;50.60;;;;;;10329205;28;92965;-64
2023/06/23 16:52:05;;;;;;;;;;;25.00;49.50;;;;;;10329713;28;93658;-63
2023/06/23 16:57:07;;;;;;;;;;;25.00;49.40;;;;;;10328771;28;93537;-63
2023/06/23 17:02:10;;;;;;;;;;;24.90;49.20;;;;;;10312741;28;92338;-64
2023/06/23 17:07:13;;;;;;;;;;;24.90;49.50;;;;;;10329186;28;94341;-62
2023/06/23 17:12:15;;;;;;;;;;;24.90;49.60;;;;;;10328894;28;94057;-64
2023/06/23 17:17:20;;;;;;;;;;;24.90;48.90;;;;;;10327127;28;95782;-64
2023/06/23 17:22:22;;;;;;;;;;;24.90;49.00;;;;;;10310677;28;94453;-64
2023/06/23 17:27:24;;;;;;;;;;;25.00;49.40;;;;;;10329104;28;93525;-64
2023/06/23 17:32:26;;;;;;;;;;;25.00;48.90;;;;;;10329067;28;94495;-64
2023/06/23 17:37:28;;;;;;;;;;;25.00;48.80;;;;;;10311142;28;94659;-64
2023/06/23 17:42:29;;;;;;;;;;;25.00;48.60;;;;;;10328960;28;94667;-64
2023/06/23 17:47:31;;;;;;;;;;;25.00;48.40;;;;;;10327265;28;93541;-65
2023/06/23 17:52:33;;;;;;;;;;;25.00;48.30;;;;;;10328170;28;92734;-64
2023/06/23 17:57:35;;;;;;;;;;;25.10;48.90;;;;;;10325485;28;93520;-63
2023/06/23 18:02:37;;;;;;;;;;;25.10;48.50;;;;;;10309555;28;96428;-62
2023/06/23 18:07:39;;;;;;;;;;;25.00;48.20;;;;;;10289019;28;95693;-62
2023/06/23 18:12:41;;;;;;;;;;;25.00;48.60;;;;;;10327255;28;93707;-63
2023/06/23 18:17:42;;;;;;;;;;;25.00;48.90;;;;;;10326831;28;93509;-62
2023/06/23 18:22:44;;;;;;;;;;;25.00;49.80;;;;;;10327164;28;94589;-62
2023/06/23 18:27:47;;;;;;;;;;;25.00;49.70;;;;;;10328862;28;93929;-62
2023/06/23 18:32:48;;;;;;;;;;;25.00;50.00;;;;;;10326503;28;94619;-62
2023/06/23 18:37:50;;;;;;;;;;;25.00;49.90;;;;;;10308685;28;94678;-61
2023/06/23 18:42:52;;;;;;;;;;;25.00;50.00;;;;;;10326935;28;93428;-61
2023/06/23 18:47:54;;;;;;;;;;;25.00;50.00;;;;;;10325484;28;93761;-61
2023/06/23 18:52:55;;;;;;;;;;;25.00;49.90;;;;;;10325102;28;93529;-61
2023/06/23 18:57:57;;;;;;;;;;;25.00;49.50;;;;;;10331752;28;94902;-61
2023/06/23 19:02:59;;;;;;;;;;;24.90;49.30;;;;;;10333256;28;94491;-61
2023/06/23 19:08:01;;;;;;;;;;;24.90;49.20;;;;;;10332909;28;93467;-61
2023/06/23 19:13:02;;;;;;;;;;;24.90;49.40;;;;;;10315437;28;93544;-61
2023/06/23 19:18:04;;;;;;;;;;;24.90;49.60;;;;;;10333455;28;94484;-61
2023/06/23 19:23:06;;;;;;;;;;;24.90;49.90;;;;;;10331285;28;93475;-62
2023/06/23 19:28:08;;;;;;;;;;;24.90;50.10;;;;;;10332931;28;94542;-61
2023/06/23 19:33:10;;;;;;;;;;;24.90;50.10;;;;;;10333666;28;93740;-61
2023/06/23 19:38:11;;;;;;;;;;;24.80;50.50;;;;;;10331846;28;94616;-61
2023/06/23 19:43:13;;;;;;;;;;;24.90;51.10;;;;;;10332152;28;94446;-61
2023/06/23 19:48:15;;;;;;;;;;;24.90;51.60;;;;;;10329088;28;97047;-61
2023/06/23 19:53:17;;;;;;;;;;;24.90;51.40;;;;;;10332156;28;94512;-61
2023/06/23 19:58:19;;;;;;;;;;;24.90;51.50;;;;;;10313084;28;93432;-61
2023/06/23 20:03:21;;;;;;;;;;;24.90;51.60;;;;;;10331239;28;92580;-61
2023/06/23 20:08:23;;;;;;;;;;;24.90;51.70;;;;;;10330786;28;92857;-61
2023/06/23 20:13:25;;;;;;;;;;;24.80;51.70;;;;;;10330349;28;93639;-61
2023/06/23 20:18:27;;;;;;;;;;;24.80;51.90;;;;;;10331871;28;94506;-62
2023/06/23 20:23:30;;;;;;;;;;;24.80;52.10;;;;;;10331632;28;94186;-61
2023/06/23 20:28:31;;;;;;;;;;;24.80;52.00;;;;;;10330448;28;93098;-62
2023/06/23 20:33:33;;;;;;;;;;;24.80;53.10;;;;;;10330170;28;94385;-61
2023/06/23 20:38:35;;;;;;;;;;;24.80;52.80;;;;;;10326321;28;96259;-61
2023/06/23 20:43:37;;;;;;;;;;;24.80;52.80;;;;;;10330577;28;93850;-62
2023/06/23 20:48:41;;;;;;;;;;;24.90;53.10;;;;;;10310329;28;93683;-62
2023/06/23 20:53:43;;;;;;;;;;;24.90;53.30;;;;;;10329872;28;94494;-62
2023/06/23 20:58:45;;;;;;;;;;;24.90;53.50;;;;;;10328920;28;94766;-61
2023/06/23 21:03:47;;;;;;;;;;;24.90;53.60;;;;;;10330456;28;94494;-61
2023/06/23 21:08:49;;;;;;;;;;;24.90;53.90;;;;;;10328023;28;93406;-59
2023/06/23 21:13:51;;;;;;;;;;;24.90;54.00;;;;;;10310903;28;92292;-61
2023/06/23 21:18:53;;;;;;;;;;;24.90;53.90;;;;;;10310813;28;93578;-61
2023/06/23 21:23:57;;;;;;;;;;;24.90;54.00;;;;;;10328312;28;93950;-61
2023/06/23 21:28:58;;;;;;;;;;;24.90;54.10;;;;;;10325841;28;96742;-62
2023/06/23 21:34:00;;;;;;;;;;;24.90;54.10;;;;;;10328145;28;93676;-61
2023/06/23 21:39:02;;;;;;;;;;;24.90;54.20;;;;;;10327322;28;94505;-60
2023/06/23 21:44:04;;;;;;;;;;;24.90;54.10;;;;;;10310281;28;93515;-61
2023/06/23 21:49:06;;;;;;;;;;;24.90;54.20;;;;;;10327416;28;92990;-62
2023/06/23 21:54:08;;;;;;;;;;;24.90;54.20;;;;;;10327033;28;94873;-62
2023/06/23 21:59:10;;;;;;;;;;;24.90;54.20;;;;;;10326570;28;93531;-62
2023/06/23 22:04:12;;;;;;;;;;;24.90;54.30;;;;;;10328921;28;92994;-62
2023/06/23 22:09:15;;;;;;;;;;;24.80;54.20;;;;;;10328111;28;94543;-61
2023/06/23 22:14:17;;;;;;;;;;;24.80;54.30;;;;;;10327391;28;94700;-61
2023/06/23 22:19:19;;;;;;;;;;;24.80;54.30;;;;;;10324487;28;96086;-62
2023/06/23 22:24:21;;;;;;;;;;;24.80;54.40;;;;;;10326337;28;94429;-62
2023/06/23 22:29:23;;;;;;;;;;;24.80;54.50;;;;;;10313172;28;94502;-62
2023/06/23 22:34:25;;;;;;;;;;;24.80;54.50;;;;;;10333103;28;93550;-61
2023/06/23 22:39:27;;;;;;;;;;;24.80;54.50;;;;;;10333858;28;94602;-62
2023/06/23 22:44:29;;;;;;;;;;;24.80;54.70;;;;;;10315734;28;94265;-62
2023/06/23 22:49:31;;;;;;;;;;;24.80;54.70;;;;;;10332908;28;94466;-61
2023/06/23 22:54:36;;;;;;;;;;;24.70;54.70;;;;;;10334109;28;93832;-63
2023/06/23 22:59:38;;;;;;;;;;;24.70;54.80;;;;;;10333130;28;93779;-62
2023/06/23 23:04:40;;;;;;;;;;;24.70;54.80;;;;;;10332603;28;94081;-62
2023/06/23 23:09:42;;;;;;;;;;;24.70;54.80;;;;;;10329912;28;95808;-62
2023/06/23 23:14:43;;;;;;;;;;;24.70;54.90;;;;;;10331661;28;94688;-62
2023/06/23 23:19:47;;;;;;;;;;;24.70;55.00;;;;;;10314383;28;93578;-62
2023/06/23 23:24:48;;;;;;;;;;;24.70;54.90;;;;;;10332490;28;96773;-62
2023/06/23 23:29:53;;;;;;;;;;;24.70;55.00;;;;;;10331625;28;94447;-62
2023/06/23 23:34:55;;;;;;;;;;;24.70;55.00;;;;;;10331698;28;94067;-61
2023/06/23 23:39:57;;;;;;;;;;;24.60;55.00;;;;;;10331871;28;94727;-63
2023/06/23 23:44:59;;;;;;;;;;;24.60;54.90;;;;;;10314883;28;93814;-62
2023/06/23 23:50:01;;;;;;;;;;;24.60;55.00;;;;;;10331886;28;94609;-61
2023/06/23 23:55:03;;;;;;;;;;;24.60;55.00;;;;;;10331668;28;94238;-62
